sensor_id;sensor_type;location;lat;lon;timestamp;temperature;humidity
30467;DHT22;17258;52.560;13.046;2023-11-19T00:04:45;10.00;64.70
30467;DHT22;17258;52.560;13.046;2023-11-19T00:14:46;10.00;64.70
30467;DHT22;17258;52.560;13.046;2023-11-19T00:24:46;9.90;64.70
30467;DHT22;17258;52.560;13.046;2023-11-19T00:34:47;9.90;64.70
30467;DHT22;17258;52.560;13.046;2023-11-19T00:44:48;10.00;64.90
30467;DHT22;17258;52.560;13.046;2023-11-19T00:54:48;9.90;64.80
30467;DHT22;17258;52.560;13.046;2023-11-19T01:04:49;9.90;64.90
30467;DHT22;17258;52.560;13.046;2023-11-19T01:14:50;10.00;64.90
30467;DHT22;17258;52.560;13.046;2023-11-19T01:24:50;10.00;65.00
30467;DHT22;17258;52.560;13.046;2023-11-19T01:34:52;10.00;65.00
30467;DHT22;17258;52.560;13.046;2023-11-19T01:45:00;10.10;65.00
30467;DHT22;17258;52.560;13.046;2023-11-19T01:55:01;10.10;65.00
30467;DHT22;17258;52.560;13.046;2023-11-19T02:05:03;9.90;65.30
30467;DHT22;17258;52.560;13.046;2023-11-19T02:15:04;10.20;65.10
30467;DHT22;17258;52.560;13.046;2023-11-19T02:25:07;10.30;65.10
30467;DHT22;17258;52.560;13.046;2023-11-19T02:35:13;10.30;65.00
30467;DHT22;17258;52.560;13.046;2023-11-19T02:45:14;10.30;65.10
30467;DHT22;17258;52.560;13.046;2023-11-19T02:55:14;10.30;64.90
30467;DHT22;17258;52.560;13.046;2023-11-19T03:05:15;10.30;64.90
30467;DHT22;17258;52.560;13.046;2023-11-19T03:15:17;10.30;65.00
30467;DHT22;17258;52.560;13.046;2023-11-19T03:25:18;10.40;65.00
30467;DHT22;17258;52.560;13.046;2023-11-19T03:35:19;10.40;64.90
30467;DHT22;17258;52.560;13.046;2023-11-19T03:45:19;10.40;65.00
30467;DHT22;17258;52.560;13.046;2023-11-19T03:55:20;10.30;65.00
30467;DHT22;17258;52.560;13.046;2023-11-19T04:05:21;10.30;65.10
30467;DHT22;17258;52.560;13.046;2023-11-19T04:15:21;10.30;65.30
30467;DHT22;17258;52.560;13.046;2023-11-19T04:25:22;10.30;65.40
30467;DHT22;17258;52.560;13.046;2023-11-19T04:35:23;10.30;65.50
30467;DHT22;17258;52.560;13.046;2023-11-19T04:45:23;10.30;65.60
30467;DHT22;17258;52.560;13.046;2023-11-19T04:55:24;10.30;65.60
30467;DHT22;17258;52.560;13.046;2023-11-19T05:05:25;10.30;65.70
30467;DHT22;17258;52.560;13.046;2023-11-19T05:15:25;10.30;65.70
30467;DHT22;17258;52.560;13.046;2023-11-19T05:25:27;10.40;65.90
30467;DHT22;17258;52.560;13.046;2023-11-19T05:35:27;10.40;65.90
30467;DHT22;17258;52.560;13.046;2023-11-19T05:45:28;10.40;66.00
30467;DHT22;17258;52.560;13.046;2023-11-19T05:55:29;10.40;66.10
30467;DHT22;17258;52.560;13.046;2023-11-19T06:05:29;10.50;66.20
30467;DHT22;17258;52.560;13.046;2023-11-19T06:15:30;10.50;66.20
30467;DHT22;17258;52.560;13.046;2023-11-19T06:25:31;10.60;66.30
30467;DHT22;17258;52.560;13.046;2023-11-19T06:35:32;10.60;66.30
30467;DHT22;17258;52.560;13.046;2023-11-19T06:45:36;10.60;66.40
30467;DHT22;17258;52.560;13.046;2023-11-19T06:55:37;10.70;66.50
30467;DHT22;17258;52.560;13.046;2023-11-19T07:05:38;10.80;66.60
30467;DHT22;17258;52.560;13.046;2023-11-19T07:15:38;10.80;66.60
30467;DHT22;17258;52.560;13.046;2023-11-19T07:25:39;10.90;66.70
30467;DHT22;17258;52.560;13.046;2023-11-19T07:35:40;10.90;66.80
30467;DHT22;17258;52.560;13.046;2023-11-19T07:45:42;11.00;66.90
30467;DHT22;17258;52.560;13.046;2023-11-19T07:55:46;11.10;67.00
30467;DHT22;17258;52.560;13.046;2023-11-19T08:05:47;11.20;67.10
30467;DHT22;17258;52.560;13.046;2023-11-19T08:15:48;11.40;67.30
30467;DHT22;17258;52.560;13.046;2023-11-19T08:25:49;11.50;67.40
30467;DHT22;17258;52.560;13.046;2023-11-19T08:35:50;11.70;67.50
30467;DHT22;17258;52.560;13.046;2023-11-19T08:45:50;11.90;67.60
30467;DHT22;17258;52.560;13.046;2023-11-19T08:55:51;12.00;67.60
30467;DHT22;17258;52.560;13.046;2023-11-19T09:05:53;12.20;67.70
30467;DHT22;17258;52.560;13.046;2023-11-19T09:15:53;12.40;67.80
30467;DHT22;17258;52.560;13.046;2023-11-19T09:25:54;12.60;68.10
30467;DHT22;17258;52.560;13.046;2023-11-19T09:35:55;12.90;68.50
30467;DHT22;17258;52.560;13.046;2023-11-19T09:45:56;13.20;68.70
30467;DHT22;17258;52.560;13.046;2023-11-19T09:56:00;13.50;69.00
30467;DHT22;17258;52.560;13.046;2023-11-19T10:06:04;13.90;69.00
30467;DHT22;17258;52.560;13.046;2023-11-19T10:16:12;14.10;68.90
30467;DHT22;17258;52.560;13.046;2023-11-19T10:26:13;14.40;69.70
30467;DHT22;17258;52.560;13.046;2023-11-19T10:36:14;14.60;70.20
30467;DHT22;17258;52.560;13.046;2023-11-19T10:46:15;14.90;71.40
30467;DHT22;17258;52.560;13.046;2023-11-19T10:56:25;15.30;70.40
30467;DHT22;17258;52.560;13.046;2023-11-19T11:06:31;15.60;70.00
30467;DHT22;17258;52.560;13.046;2023-11-19T11:16:34;15.70;69.90
30467;DHT22;17258;52.560;13.046;2023-11-19T11:26:50;15.90;69.90
30467;DHT22;17258;52.560;13.046;2023-11-19T11:37:11;16.10;70.80
30467;DHT22;17258;52.560;13.046;2023-11-19T11:47:20;16.40;70.80
30467;DHT22;17258;52.560;13.046;2023-11-19T11:57:20;16.60;69.80
30467;DHT22;17258;52.560;13.046;2023-11-19T12:07:24;16.70;69.40
30467;DHT22;17258;52.560;13.046;2023-11-19T12:17:40;16.80;69.00
30467;DHT22;17258;52.560;13.046;2023-11-19T12:27:53;16.80;68.80
30467;DHT22;17258;52.560;13.046;2023-11-19T12:37:54;16.80;68.20
30467;DHT22;17258;52.560;13.046;2023-11-19T12:48:08;16.70;68.20
30467;DHT22;17258;52.560;13.046;2023-11-19T12:58:30;16.60;68.10
30467;DHT22;17258;52.560;13.046;2023-11-19T13:08:46;16.50;68.00
30467;DHT22;17258;52.560;13.046;2023-11-19T13:18:49;16.40;68.00
30467;DHT22;17258;52.560;13.046;2023-11-19T13:28:50;16.30;68.10
30467;DHT22;17258;52.560;13.046;2023-11-19T13:38:50;16.30;68.20
30467;DHT22;17258;52.560;13.046;2023-11-19T13:48:51;16.30;68.10
30467;DHT22;17258;52.560;13.046;2023-11-19T13:58:52;16.30;68.00
30467;DHT22;17258;52.560;13.046;2023-11-19T14:08:53;16.40;67.80
30467;DHT22;17258;52.560;13.046;2023-11-19T14:18:54;16.40;67.70
30467;DHT22;17258;52.560;13.046;2023-11-19T14:28:55;16.30;67.80
30467;DHT22;17258;52.560;13.046;2023-11-19T14:38:55;16.30;67.70
30467;DHT22;17258;52.560;13.046;2023-11-19T14:48:58;16.30;67.60
30467;DHT22;17258;52.560;13.046;2023-11-19T14:58:59;16.30;67.70
30467;DHT22;17258;52.560;13.046;2023-11-19T15:09:00;16.20;67.70
30467;DHT22;17258;52.560;13.046;2023-11-19T15:19:00;16.10;67.70
30467;DHT22;17258;52.560;13.046;2023-11-19T15:29:04;16.10;67.60
30467;DHT22;17258;52.560;13.046;2023-11-19T15:39:08;16.10;67.40
30467;DHT22;17258;52.560;13.046;2023-11-19T15:49:08;16.10;67.40
30467;DHT22;17258;52.560;13.046;2023-11-19T15:59:09;16.10;67.30
30467;DHT22;17258;52.560;13.046;2023-11-19T16:09:10;16.00;67.30
30467;DHT22;17258;52.560;13.046;2023-11-19T16:19:15;16.00;67.30
30467;DHT22;17258;52.560;13.046;2023-11-19T16:29:15;16.00;67.20
30467;DHT22;17258;52.560;13.046;2023-11-19T16:39:16;16.00;67.10
30467;DHT22;17258;52.560;13.046;2023-11-19T16:49:17;15.90;67.20
30467;DHT22;17258;52.560;13.046;2023-11-19T16:59:17;15.90;67.50
30467;DHT22;17258;52.560;13.046;2023-11-19T17:09:18;15.90;67.40
30467;DHT22;17258;52.560;13.046;2023-11-19T17:19:19;15.90;67.30
30467;DHT22;17258;52.560;13.046;2023-11-19T17:29:21;15.90;67.20
30467;DHT22;17258;52.560;13.046;2023-11-19T17:39:22;15.80;67.20
30467;DHT22;17258;52.560;13.046;2023-11-19T17:49:22;15.70;67.40
30467;DHT22;17258;52.560;13.046;2023-11-19T17:59:24;15.60;67.50
30467;DHT22;17258;52.560;13.046;2023-11-19T18:09:27;15.50;67.40
30467;DHT22;17258;52.560;13.046;2023-11-19T18:19:28;15.40;67.40
30467;DHT22;17258;52.560;13.046;2023-11-19T18:29:29;15.30;67.20
30467;DHT22;17258;52.560;13.046;2023-11-19T18:39:30;15.20;67.30
30467;DHT22;17258;52.560;13.046;2023-11-19T18:49:31;15.10;67.20
30467;DHT22;17258;52.560;13.046;2023-11-19T18:59:32;15.10;67.30
30467;DHT22;17258;52.560;13.046;2023-11-19T19:09:33;15.00;67.20
30467;DHT22;17258;52.560;13.046;2023-11-19T19:19:36;14.90;67.40
30467;DHT22;17258;52.560;13.046;2023-11-19T19:29:38;14.90;67.60
30467;DHT22;17258;52.560;13.046;2023-11-19T19:39:38;14.90;67.80
30467;DHT22;17258;52.560;13.046;2023-11-19T19:49:39;14.90;67.90
30467;DHT22;17258;52.560;13.046;2023-11-19T19:59:40;14.90;68.10
30467;DHT22;17258;52.560;13.046;2023-11-19T20:09:42;14.90;68.40
30467;DHT22;17258;52.560;13.046;2023-11-19T20:19:43;14.90;68.50
30467;DHT22;17258;52.560;13.046;2023-11-19T20:29:47;14.90;68.20
30467;DHT22;17258;52.560;13.046;2023-11-19T20:39:48;14.90;68.30
30467;DHT22;17258;52.560;13.046;2023-11-19T20:49:48;14.90;68.40
30467;DHT22;17258;52.560;13.046;2023-11-19T20:59:50;14.90;68.70
30467;DHT22;17258;52.560;13.046;2023-11-19T21:09:52;14.90;68.50
30467;DHT22;17258;52.560;13.046;2023-11-19T21:19:53;14.90;68.50
30467;DHT22;17258;52.560;13.046;2023-11-19T21:29:55;14.80;69.10
30467;DHT22;17258;52.560;13.046;2023-11-19T21:39:59;14.80;68.40
30467;DHT22;17258;52.560;13.046;2023-11-19T21:50:00;14.80;68.50
30467;DHT22;17258;52.560;13.046;2023-11-19T22:00:01;14.80;68.80
30467;DHT22;17258;52.560;13.046;2023-11-19T22:10:03;14.70;68.70
30467;DHT22;17258;52.560;13.046;2023-11-19T22:20:05;14.70;68.80
30467;DHT22;17258;52.560;13.046;2023-11-19T22:30:07;14.80;69.00
30467;DHT22;17258;52.560;13.046;2023-11-19T22:40:11;14.80;69.00
30467;DHT22;17258;52.560;13.046;2023-11-19T22:50:12;14.80;69.00
30467;DHT22;17258;52.560;13.046;2023-11-19T23:00:13;14.90;69.10
30467;DHT22;17258;52.560;13.046;2023-11-19T23:10:28;14.90;69.10
30467;DHT22;17258;52.560;13.046;2023-11-19T23:20:32;15.00;69.20
30467;DHT22;17258;52.560;13.046;2023-11-19T23:30:33;15.00;69.30
30467;DHT22;17258;52.560;13.046;2023-11-19T23:40:34;15.00;69.20
30467;DHT22;17258;52.560;13.046;2023-11-19T23:50:35;15.00;69.30
